createdAt,value
2017-12-11T00:01:40.719Z,2.70
2017-12-11T00:04:09.764Z,3.10
2017-12-11T00:06:38.012Z,3.00
2017-12-11T00:09:06.293Z,2.90
2017-12-11T00:11:35.363Z,3.00
2017-12-11T00:14:04.379Z,2.90
2017-12-11T00:16:32.648Z,2.90
2017-12-11T00:19:00.895Z,3.00
2017-12-11T00:21:29.243Z,3.10
2017-12-11T00:23:57.500Z,3.30
2017-12-11T00:26:25.783Z,3.20
2017-12-11T00:28:54.053Z,3.10
2017-12-11T00:31:22.355Z,3.20
2017-12-11T00:33:50.650Z,3.30
2017-12-11T00:36:18.904Z,3.40
2017-12-11T00:38:47.160Z,3.40
2017-12-11T00:41:15.443Z,3.40
2017-12-11T00:43:43.691Z,3.60
2017-12-11T00:46:11.991Z,3.70
2017-12-11T00:48:40.300Z,3.60
2017-12-11T00:51:08.574Z,3.70
2017-12-11T00:53:36.845Z,3.80
2017-12-11T00:56:05.104Z,3.80
2017-12-11T00:58:33.404Z,3.70
2017-12-11T01:01:01.790Z,3.80
2017-12-11T01:03:30.060Z,3.70
2017-12-11T01:05:58.436Z,3.70
2017-12-11T01:08:26.688Z,3.90
2017-12-11T01:10:54.971Z,3.80
2017-12-11T01:13:23.224Z,4.10
2017-12-11T01:15:51.543Z,3.90
2017-12-11T01:18:19.836Z,3.70
2017-12-11T01:20:48.091Z,3.60
2017-12-11T01:23:16.380Z,3.60
2017-12-11T01:25:44.656Z,3.60
2017-12-11T01:28:12.907Z,3.50
2017-12-11T01:30:41.183Z,3.70
2017-12-11T01:33:09.436Z,3.60
2017-12-11T01:35:37.720Z,3.70
2017-12-11T01:38:06.045Z,3.70
2017-12-11T01:40:34.339Z,3.70
2017-12-11T01:43:02.704Z,3.70
2017-12-11T01:45:30.991Z,3.80
2017-12-11T01:47:59.263Z,3.90
2017-12-11T01:50:28.284Z,4.00
2017-12-11T01:52:57.346Z,4.10
2017-12-11T01:55:25.623Z,4.00
2017-12-11T01:57:53.866Z,4.20
2017-12-11T02:00:22.172Z,4.20
2017-12-11T02:02:50.436Z,4.30
2017-12-11T02:05:18.689Z,4.30
2017-12-11T02:07:46.951Z,4.30
2017-12-11T02:10:15.973Z,4.40
2017-12-11T02:12:44.247Z,4.30
2017-12-11T02:15:12.500Z,4.30
2017-12-11T02:17:41.518Z,4.50
2017-12-11T02:20:09.827Z,4.50
2017-12-11T02:22:38.100Z,4.60
2017-12-11T02:25:06.376Z,4.70
2017-12-11T02:27:34.668Z,4.80
2017-12-11T02:30:02.939Z,4.80
2017-12-11T02:32:31.214Z,4.90
2017-12-11T02:34:59.834Z,4.90
2017-12-11T02:37:28.871Z,5.00
2017-12-11T02:39:57.123Z,5.00
2017-12-11T02:42:25.408Z,5.10
2017-12-11T02:44:53.657Z,5.10
2017-12-11T02:47:22.672Z,5.20
2017-12-11T02:49:50.939Z,5.20
2017-12-11T02:52:19.961Z,5.40
2017-12-11T02:54:48.266Z,5.40
2017-12-11T02:57:16.520Z,5.40
2017-12-11T02:59:44.925Z,5.40
2017-12-11T03:02:13.194Z,5.40
2017-12-11T03:04:41.440Z,5.40
2017-12-11T03:07:09.694Z,5.30
2017-12-11T03:09:38.726Z,5.40
2017-12-11T03:12:06.975Z,5.40
2017-12-11T03:14:35.249Z,5.40
2017-12-11T03:17:03.499Z,5.30
2017-12-11T03:19:31.843Z,5.30
2017-12-11T03:22:00.116Z,5.30
2017-12-11T03:24:28.408Z,5.30
2017-12-11T03:26:56.703Z,5.30
2017-12-11T03:29:25.060Z,5.40
2017-12-11T03:31:53.348Z,5.50
2017-12-11T03:34:21.723Z,5.50
2017-12-11T03:36:49.961Z,5.50
2017-12-11T03:39:18.279Z,5.50
2017-12-11T03:41:46.511Z,5.50
2017-12-11T03:44:14.768Z,5.50
2017-12-11T03:46:43.815Z,5.40
2017-12-11T03:49:12.096Z,5.40
2017-12-11T03:51:40.380Z,5.50
2017-12-11T03:54:08.635Z,5.40
2017-12-11T03:56:36.883Z,5.40
2017-12-11T03:59:05.194Z,5.40
2017-12-11T04:01:33.440Z,5.40
2017-12-11T04:04:01.846Z,5.40
2017-12-11T04:06:30.083Z,5.60
2017-12-11T04:08:58.331Z,5.70
2017-12-11T04:11:27.361Z,5.70
2017-12-11T04:13:55.607Z,5.60
2017-12-11T04:16:24.648Z,5.60
2017-12-11T04:18:52.894Z,5.60
2017-12-11T04:21:21.160Z,5.70
2017-12-11T04:23:50.199Z,5.50
2017-12-11T04:26:18.444Z,5.50
2017-12-11T04:28:46.753Z,5.50
2017-12-11T04:31:15.004Z,5.40
2017-12-11T04:33:43.256Z,5.40
2017-12-11T04:36:12.336Z,5.30
2017-12-11T04:38:40.596Z,5.30
2017-12-11T04:41:08.860Z,5.30
2017-12-11T04:43:37.148Z,5.20
2017-12-11T04:46:05.409Z,5.20
2017-12-11T04:48:33.708Z,5.20
2017-12-11T04:51:01.940Z,5.20
2017-12-11T04:53:30.245Z,5.20
2017-12-11T04:55:58.488Z,5.20
2017-12-11T04:58:26.738Z,5.20
2017-12-11T05:00:55.774Z,5.20
2017-12-11T05:03:24.050Z,5.10
2017-12-11T05:05:52.326Z,5.20
2017-12-11T05:08:20.567Z,5.20
2017-12-11T05:10:49.589Z,5.10
2017-12-11T05:13:17.851Z,5.10
2017-12-11T05:15:46.873Z,5.20
2017-12-11T05:18:15.163Z,5.10
2017-12-11T05:20:43.403Z,5.10
2017-12-11T05:23:11.656Z,5.10
2017-12-11T05:25:39.929Z,5.10
2017-12-11T05:28:08.944Z,5.00
2017-12-11T05:30:37.990Z,5.00
2017-12-11T05:33:06.241Z,5.00
2017-12-11T05:35:34.548Z,4.90
2017-12-11T05:38:02.983Z,4.90
2017-12-11T05:40:31.180Z,4.90
2017-12-11T05:42:59.448Z,4.90
2017-12-11T05:45:27.751Z,4.90
2017-12-11T05:47:56.716Z,4.90
2017-12-11T05:50:25.020Z,4.90
2017-12-11T05:52:53.305Z,4.80
2017-12-11T05:55:21.702Z,4.80
2017-12-11T05:57:49.931Z,4.80
2017-12-11T06:00:18.239Z,4.80
2017-12-11T06:02:46.503Z,4.80
2017-12-11T06:05:14.756Z,4.80
2017-12-11T06:07:43.012Z,4.80
2017-12-11T06:10:11.279Z,4.80
2017-12-11T06:12:39.528Z,4.80
2017-12-11T06:15:07.803Z,4.60
2017-12-11T06:17:36.073Z,4.70
2017-12-11T06:20:04.321Z,4.60
2017-12-11T06:22:33.415Z,4.40
2017-12-11T06:25:02.428Z,4.30
2017-12-11T06:27:30.700Z,4.30
2017-12-11T06:29:58.985Z,4.20
2017-12-11T06:32:27.220Z,4.10
2017-12-11T06:34:55.491Z,4.00
2017-12-11T06:37:23.740Z,4.00
2017-12-11T06:39:52.020Z,4.00
2017-12-11T06:42:20.272Z,3.90
2017-12-11T06:44:48.572Z,3.80
2017-12-11T06:47:16.839Z,3.80
2017-12-11T06:49:45.123Z,3.80
2017-12-11T06:52:13.400Z,3.90
2017-12-11T06:54:41.679Z,3.70
2017-12-11T06:57:09.941Z,3.70
2017-12-11T06:59:38.209Z,3.70
2017-12-11T07:02:06.523Z,3.60
2017-12-11T07:04:34.806Z,3.70
2017-12-11T07:07:03.049Z,3.60
2017-12-11T07:09:31.300Z,3.60
2017-12-11T07:11:59.731Z,3.70
2017-12-11T07:14:27.965Z,3.60
2017-12-11T07:16:56.235Z,3.60
2017-12-11T07:19:24.492Z,3.60
2017-12-11T07:21:53.550Z,3.50
2017-12-11T07:24:21.808Z,3.50
2017-12-11T07:26:50.059Z,3.40
2017-12-11T07:29:18.336Z,3.40
2017-12-11T07:31:46.597Z,3.40
2017-12-11T07:34:15.636Z,3.20
2017-12-11T07:36:43.914Z,3.20
2017-12-11T07:39:12.155Z,3.30
2017-12-11T07:41:41.185Z,3.20
2017-12-11T07:44:09.436Z,3.20
2017-12-11T07:46:37.716Z,3.20
2017-12-11T07:49:06.033Z,3.20
2017-12-11T07:51:34.280Z,3.20
2017-12-11T07:54:02.587Z,3.20
2017-12-11T07:56:30.838Z,3.10
2017-12-11T07:58:59.095Z,3.20
2017-12-11T08:01:27.423Z,3.20
2017-12-11T08:03:55.677Z,3.30
2017-12-11T08:06:23.923Z,3.40
2017-12-11T08:08:52.939Z,3.40
2017-12-11T08:11:21.215Z,3.40
2017-12-11T08:13:49.468Z,3.40
2017-12-11T08:16:18.495Z,3.40
2017-12-11T08:18:46.751Z,3.40
2017-12-11T08:21:15.828Z,3.40
2017-12-11T08:23:44.847Z,3.50
2017-12-11T08:26:13.104Z,3.50
2017-12-11T08:28:42.135Z,3.60
2017-12-11T08:31:10.393Z,3.60
2017-12-11T08:33:38.676Z,3.60
2017-12-11T08:36:06.977Z,3.70
2017-12-11T08:38:35.940Z,3.70
2017-12-11T08:41:04.254Z,3.70
2017-12-11T08:43:32.526Z,3.80
2017-12-11T08:46:00.808Z,3.80
2017-12-11T08:48:29.121Z,3.80
2017-12-11T08:50:58.148Z,3.80
2017-12-11T08:53:26.430Z,3.80
2017-12-11T08:55:54.690Z,3.90
2017-12-11T08:58:23.732Z,4.00
2017-12-11T09:00:51.992Z,4.00
2017-12-11T09:03:20.264Z,4.00
2017-12-11T09:05:48.515Z,4.00
2017-12-11T09:08:16.772Z,4.00
2017-12-11T09:10:45.808Z,4.10
2017-12-11T09:13:14.107Z,4.10
2017-12-11T09:15:42.486Z,4.00
2017-12-11T09:18:10.740Z,4.00
2017-12-11T09:20:39.027Z,4.00
2017-12-11T09:23:07.276Z,4.10
2017-12-11T09:25:35.527Z,4.00
2017-12-11T09:28:04.558Z,4.00
2017-12-11T09:30:32.807Z,4.00
2017-12-11T09:33:01.851Z,4.00
2017-12-11T09:35:30.115Z,4.00
2017-12-11T09:37:58.363Z,4.00
2017-12-11T09:40:26.640Z,4.10
2017-12-11T09:42:55.652Z,4.10
2017-12-11T09:45:23.936Z,4.10
2017-12-11T09:47:52.183Z,4.10
2017-12-11T09:50:21.232Z,4.10
2017-12-11T09:52:49.509Z,4.10
2017-12-11T09:55:17.763Z,4.20
2017-12-11T09:57:46.036Z,4.30
2017-12-11T10:00:14.291Z,4.30
2017-12-11T10:02:42.574Z,4.30
2017-12-11T10:05:10.824Z,4.40
2017-12-11T10:07:39.891Z,4.40
2017-12-11T10:10:08.175Z,4.30
2017-12-11T10:12:36.444Z,4.40
2017-12-11T10:15:04.722Z,4.50
2017-12-11T10:17:32.976Z,4.50
2017-12-11T10:20:01.248Z,4.40
2017-12-11T10:22:29.516Z,4.40
2017-12-11T10:24:57.792Z,4.30
2017-12-11T10:27:26.039Z,4.40
2017-12-11T10:29:55.096Z,4.40
2017-12-11T10:32:23.376Z,4.30
2017-12-11T10:34:51.634Z,4.30
2017-12-11T10:37:19.925Z,4.30
2017-12-11T10:39:48.193Z,4.20
2017-12-11T10:42:16.481Z,4.10
2017-12-11T10:44:44.732Z,4.20
2017-12-11T10:47:12.996Z,4.20
2017-12-11T10:49:41.279Z,4.20
2017-12-11T10:52:09.539Z,4.10
2017-12-11T10:54:38.581Z,4.00
2017-12-11T10:57:06.832Z,4.00
2017-12-11T10:59:35.139Z,4.00
2017-12-11T11:02:03.384Z,4.10
2017-12-11T11:04:31.693Z,4.10
2017-12-11T11:06:59.961Z,4.10
2017-12-11T11:09:28.216Z,4.20
2017-12-11T11:11:56.492Z,4.20
2017-12-11T11:14:24.751Z,4.20
2017-12-11T11:16:53.074Z,4.30
2017-12-11T11:19:21.324Z,4.20
2017-12-11T11:21:49.576Z,4.30
2017-12-11T11:24:18.626Z,4.30
2017-12-11T11:26:46.873Z,4.30
2017-12-11T11:29:15.176Z,4.30
2017-12-11T11:31:43.453Z,4.30
2017-12-11T11:34:11.737Z,4.30
2017-12-11T11:36:39.996Z,4.20
2017-12-11T11:39:08.259Z,4.20
2017-12-11T11:41:36.537Z,4.20
2017-12-11T11:44:04.803Z,4.30
2017-12-11T11:46:33.223Z,4.30
2017-12-11T11:49:01.475Z,4.30
2017-12-11T11:51:29.760Z,4.30
2017-12-11T11:53:58.030Z,4.30
2017-12-11T11:56:26.287Z,4.30
2017-12-11T11:58:54.611Z,4.30
2017-12-11T12:01:22.860Z,4.30
2017-12-11T12:03:51.167Z,4.30
2017-12-11T12:06:19.440Z,4.20
2017-12-11T12:08:47.717Z,4.40
2017-12-11T12:11:15.977Z,4.40
2017-12-11T12:13:44.247Z,4.30
2017-12-11T12:16:12.548Z,4.50
2017-12-11T12:18:40.795Z,4.60
2017-12-11T12:21:09.072Z,4.60
2017-12-11T12:23:37.376Z,4.60
2017-12-11T12:26:05.662Z,4.70
2017-12-11T12:28:33.911Z,4.60
2017-12-11T12:31:02.206Z,4.60
2017-12-11T12:33:30.465Z,4.70
2017-12-11T12:35:58.723Z,4.70
2017-12-11T12:38:27.041Z,4.70
2017-12-11T12:40:55.284Z,4.70
2017-12-11T12:43:23.586Z,4.60
2017-12-11T12:45:51.974Z,4.70
2017-12-11T12:48:20.220Z,4.80
2017-12-11T12:50:48.495Z,4.80
2017-12-11T12:53:16.750Z,4.90
2017-12-11T12:55:45.896Z,4.60
2017-12-11T12:58:14.172Z,4.70
2017-12-11T13:00:42.548Z,4.70
2017-12-11T13:03:10.818Z,4.70
2017-12-11T13:05:39.087Z,4.70
2017-12-11T13:08:07.355Z,4.70
2017-12-11T13:10:35.611Z,4.70
2017-12-11T13:13:04.753Z,4.70
2017-12-11T13:15:33.008Z,4.70
2017-12-11T13:18:01.288Z,4.60
2017-12-11T13:20:29.584Z,4.70
2017-12-11T13:22:57.840Z,4.60
2017-12-11T13:25:26.117Z,4.60
2017-12-11T13:27:54.371Z,4.60
2017-12-11T13:30:22.653Z,4.60
2017-12-11T13:32:50.904Z,4.60
2017-12-11T13:35:19.183Z,4.50
2017-12-11T13:37:48.212Z,4.50
2017-12-11T13:40:16.478Z,4.50
2017-12-11T13:42:44.750Z,4.50
2017-12-11T13:45:13.008Z,4.40
2017-12-11T13:47:41.368Z,4.40
2017-12-11T13:50:09.624Z,4.40
2017-12-11T13:52:37.910Z,4.40
2017-12-11T13:55:06.169Z,4.50
2017-12-11T13:57:34.419Z,4.50
2017-12-11T14:00:03.460Z,4.40
2017-12-11T14:02:31.715Z,4.30
2017-12-11T14:05:00.033Z,4.40
2017-12-11T14:07:28.292Z,4.30
2017-12-11T14:09:56.597Z,4.40
2017-12-11T14:12:24.865Z,4.40
2017-12-11T14:14:53.120Z,4.50
2017-12-11T14:17:21.387Z,4.30
2017-12-11T14:19:49.661Z,4.30
2017-12-11T14:22:17.905Z,4.30
2017-12-11T14:24:46.947Z,4.30
2017-12-11T14:27:15.249Z,4.30
2017-12-11T14:29:43.512Z,4.10
2017-12-11T14:32:11.767Z,4.10
2017-12-11T14:34:40.046Z,4.20
2017-12-11T14:37:08.296Z,4.10
2017-12-11T14:39:37.329Z,3.90
2017-12-11T14:42:05.612Z,3.90
2017-12-11T14:44:33.893Z,4.00
2017-12-11T14:47:02.173Z,4.10
2017-12-11T14:49:30.462Z,4.20
2017-12-11T14:51:58.740Z,4.20
2017-12-11T14:54:27.000Z,4.10
2017-12-11T14:56:55.297Z,4.00
2017-12-11T14:59:23.576Z,4.00
2017-12-11T15:01:51.839Z,4.00
2017-12-11T15:04:20.133Z,4.10
2017-12-11T15:06:48.439Z,4.10
2017-12-11T15:09:17.698Z,4.10
2017-12-11T15:11:45.940Z,4.10
2017-12-11T15:14:14.199Z,4.10
2017-12-11T15:16:43.231Z,4.20
2017-12-11T15:19:11.500Z,4.20
2017-12-11T15:21:39.767Z,4.20
2017-12-11T15:24:08.036Z,4.30
2017-12-11T15:26:36.297Z,4.30
2017-12-11T15:29:05.454Z,4.30
2017-12-11T15:31:33.722Z,4.30
2017-12-11T15:34:02.009Z,4.40
2017-12-11T15:36:30.261Z,4.40
2017-12-11T15:38:58.537Z,4.30
2017-12-11T15:41:26.808Z,4.20
2017-12-11T15:43:55.217Z,4.30
2017-12-11T15:46:23.489Z,4.30
2017-12-11T15:48:51.768Z,4.30
2017-12-11T15:51:20.015Z,4.40
2017-12-11T15:53:48.291Z,4.40
2017-12-11T15:56:16.549Z,4.40
2017-12-11T15:58:44.838Z,4.40
2017-12-11T16:01:13.119Z,4.40
2017-12-11T16:03:41.368Z,4.50
2017-12-11T16:06:10.422Z,4.40
2017-12-11T16:08:38.808Z,4.40
2017-12-11T16:11:07.178Z,4.40
2017-12-11T16:13:35.423Z,4.50
2017-12-11T16:16:03.682Z,4.50
2017-12-11T16:18:32.940Z,4.40
2017-12-11T16:21:01.175Z,4.40
2017-12-11T16:23:29.464Z,4.30
2017-12-11T16:25:57.732Z,4.40
2017-12-11T16:28:25.984Z,4.40
2017-12-11T16:30:55.140Z,4.40
2017-12-11T16:33:23.396Z,4.40
2017-12-11T16:35:51.667Z,4.40
2017-12-11T16:38:19.956Z,4.40
2017-12-11T16:40:48.217Z,4.30
2017-12-11T16:43:16.507Z,4.30
2017-12-11T16:45:44.984Z,4.30
2017-12-11T16:48:13.376Z,4.40
2017-12-11T16:50:41.615Z,4.40
2017-12-11T16:53:09.864Z,4.30
2017-12-11T16:55:38.922Z,4.40
2017-12-11T16:58:07.167Z,4.40
2017-12-11T17:00:35.441Z,4.50
2017-12-11T17:03:03.748Z,4.50
2017-12-11T17:05:32.004Z,4.50
2017-12-11T17:08:00.307Z,4.50
2017-12-11T17:10:28.570Z,4.50
2017-12-11T17:12:56.874Z,4.50
2017-12-11T17:15:25.128Z,4.50
2017-12-11T17:17:53.389Z,4.50
2017-12-11T17:20:21.672Z,4.60
2017-12-11T17:22:49.926Z,4.70
2017-12-11T17:25:18.200Z,4.70
2017-12-11T17:27:46.520Z,4.70
2017-12-11T17:30:15.111Z,4.70
2017-12-11T17:32:43.489Z,4.80
2017-12-11T17:35:11.764Z,4.90
2017-12-11T17:37:40.036Z,4.80
2017-12-11T17:40:08.315Z,4.80
2017-12-11T17:42:36.707Z,4.80
2017-12-11T17:45:04.967Z,4.80
2017-12-11T17:47:33.224Z,4.80
2017-12-11T17:50:01.507Z,4.90
2017-12-11T17:52:29.756Z,4.80
2017-12-11T17:54:58.006Z,4.90
2017-12-11T17:57:27.073Z,4.90
2017-12-11T17:59:55.336Z,4.90
2017-12-11T18:02:23.599Z,5.00
2017-12-11T18:04:51.894Z,5.10
2017-12-11T18:07:20.169Z,5.10
2017-12-11T18:09:48.499Z,5.20
2017-12-11T18:12:17.561Z,5.30
2017-12-11T18:14:45.852Z,5.30
2017-12-11T18:17:14.107Z,5.40
2017-12-11T18:19:42.386Z,5.30
2017-12-11T18:22:10.656Z,5.40
2017-12-11T18:24:38.920Z,5.40
2017-12-11T18:27:07.198Z,5.40
2017-12-11T18:29:35.452Z,5.40
2017-12-11T18:32:03.708Z,5.40
2017-12-11T18:34:32.767Z,5.40
2017-12-11T18:37:01.036Z,5.40
2017-12-11T18:39:29.321Z,5.30
2017-12-11T18:41:57.573Z,5.30
2017-12-11T18:44:25.868Z,5.40
2017-12-11T18:46:54.153Z,5.40
2017-12-11T18:49:22.534Z,5.30
2017-12-11T18:51:50.816Z,5.30
2017-12-11T18:54:19.079Z,5.30
2017-12-11T18:56:47.332Z,5.30
2017-12-11T18:59:15.620Z,5.40
2017-12-11T19:01:43.903Z,5.40
2017-12-11T19:04:12.408Z,5.40
2017-12-11T19:06:40.656Z,5.40
2017-12-11T19:09:08.903Z,5.50
2017-12-11T19:11:37.246Z,5.50
2017-12-11T19:14:05.503Z,5.60
2017-12-11T19:16:33.793Z,5.50
2017-12-11T19:19:02.159Z,5.50
2017-12-11T19:21:30.426Z,5.60
2017-12-11T19:23:58.708Z,5.50
2017-12-11T19:26:26.978Z,5.60
2017-12-11T19:28:55.279Z,5.70
2017-12-11T19:31:23.531Z,5.70
2017-12-11T19:33:51.780Z,5.70
2017-12-11T19:36:20.104Z,5.80
2017-12-11T19:38:48.352Z,5.70
2017-12-11T19:41:16.647Z,5.80
2017-12-11T19:43:44.901Z,5.80
2017-12-11T19:46:13.155Z,5.80
2017-12-11T19:48:42.206Z,5.80
2017-12-11T19:51:10.496Z,5.80
2017-12-11T19:53:38.773Z,5.80
2017-12-11T19:56:08.543Z,5.80
2017-12-11T19:58:36.805Z,5.80
2017-12-11T20:01:05.932Z,5.80
2017-12-11T20:03:34.168Z,5.90
2017-12-11T20:06:03.432Z,5.90
2017-12-11T20:08:31.668Z,5.90
2017-12-11T20:11:00.080Z,5.90
2017-12-11T20:13:28.341Z,5.90
2017-12-11T20:15:56.628Z,6.00
2017-12-11T20:18:25.101Z,6.00
2017-12-11T20:20:53.353Z,5.90
2017-12-11T20:23:22.365Z,6.00
2017-12-11T20:25:50.662Z,6.00
2017-12-11T20:28:18.916Z,5.90
2017-12-11T20:30:47.339Z,5.90
2017-12-11T20:33:17.236Z,6.00
2017-12-11T20:35:45.534Z,6.00
2017-12-11T20:38:13.779Z,6.00
2017-12-11T20:40:42.040Z,6.10
2017-12-11T20:43:10.319Z,6.10
2017-12-11T20:45:38.573Z,6.10
2017-12-11T20:48:06.839Z,6.10
2017-12-11T20:50:35.906Z,6.10
2017-12-11T20:53:04.202Z,6.10
2017-12-11T20:55:33.252Z,6.20
2017-12-11T20:58:01.577Z,6.20
2017-12-11T21:00:29.843Z,6.20
2017-12-11T21:02:58.880Z,6.30
2017-12-11T21:05:27.131Z,6.30
2017-12-11T21:07:56.287Z,6.30
2017-12-11T21:10:24.537Z,6.30
2017-12-11T21:12:52.787Z,6.30
2017-12-11T21:15:21.093Z,6.30
2017-12-11T21:17:49.357Z,6.20
2017-12-11T21:20:18.444Z,6.20
2017-12-11T21:22:47.447Z,6.10
2017-12-11T21:25:15.721Z,6.20
2017-12-11T21:27:44.018Z,6.20
2017-12-11T21:30:12.276Z,6.10
2017-12-11T21:32:40.597Z,6.00
2017-12-11T21:35:08.973Z,6.20
2017-12-11T21:37:37.253Z,6.50
2017-12-11T21:40:05.489Z,6.60
2017-12-11T21:42:33.763Z,6.60
2017-12-11T21:45:02.086Z,6.70
2017-12-11T21:47:30.362Z,6.80
2017-12-11T21:49:58.625Z,6.90
2017-12-11T21:52:26.867Z,7.20
2017-12-11T21:54:55.189Z,7.20
2017-12-11T21:57:23.473Z,7.20
2017-12-11T21:59:51.733Z,7.30
2017-12-11T22:02:20.069Z,7.40
2017-12-11T22:04:48.502Z,7.40
2017-12-11T22:07:16.755Z,7.50
2017-12-11T22:09:45.007Z,7.40
2017-12-11T22:12:13.437Z,7.50
2017-12-11T22:14:41.685Z,7.50
2017-12-11T22:17:09.984Z,7.50
2017-12-11T22:19:38.227Z,7.50
2017-12-11T22:22:06.492Z,7.50
2017-12-11T22:24:34.931Z,7.50
2017-12-11T22:27:03.220Z,7.50
2017-12-11T22:29:31.464Z,7.50
2017-12-11T22:31:59.716Z,7.50
2017-12-11T22:34:27.987Z,7.50
2017-12-11T22:36:56.411Z,7.40
2017-12-11T22:39:24.648Z,7.40
2017-12-11T22:41:52.968Z,7.50
2017-12-11T22:44:21.208Z,7.60
2017-12-11T22:46:49.490Z,7.60
2017-12-11T22:49:17.741Z,7.70
2017-12-11T22:51:46.893Z,7.70
2017-12-11T22:54:15.150Z,7.70
2017-12-11T22:56:43.422Z,7.70
2017-12-11T22:59:11.827Z,7.70
2017-12-11T23:01:40.067Z,7.70
2017-12-11T23:04:08.382Z,7.80
2017-12-11T23:06:36.624Z,7.80
2017-12-11T23:09:04.938Z,7.70
2017-12-11T23:11:33.206Z,7.80
2017-12-11T23:14:01.530Z,7.80
2017-12-11T23:16:30.562Z,7.80
2017-12-11T23:18:58.894Z,7.80
2017-12-11T23:21:27.189Z,7.80
2017-12-11T23:23:55.439Z,7.80
2017-12-11T23:26:24.515Z,7.80
2017-12-11T23:28:52.759Z,7.80
2017-12-11T23:31:21.056Z,7.80
2017-12-11T23:33:49.445Z,7.80
2017-12-11T23:36:17.688Z,7.80
2017-12-11T23:38:45.952Z,7.80
2017-12-11T23:41:14.387Z,7.80
2017-12-11T23:43:42.733Z,7.90
2017-12-11T23:46:10.989Z,7.90
2017-12-11T23:48:39.371Z,8.00
2017-12-11T23:51:08.137Z,7.90
2017-12-11T23:53:37.172Z,8.00
2017-12-11T23:56:05.660Z,7.90
2017-12-11T23:58:34.068Z,8.00
